createdAt,value
2019-05-16T00:00:19.258Z,1016.62
2019-05-16T00:01:19.229Z,1016.60
2019-05-16T00:02:18.610Z,1016.57
2019-05-16T00:03:18.676Z,1016.53
2019-05-16T00:04:18.020Z,1016.48
2019-05-16T00:05:18.767Z,1016.50
2019-05-16T00:06:18.075Z,1016.49
2019-05-16T00:07:19.246Z,1016.46
2019-05-16T00:08:17.976Z,1016.38
2019-05-16T00:09:18.364Z,1016.38
2019-05-16T00:10:18.693Z,1016.39
2019-05-16T00:11:18.196Z,1016.39
2019-05-16T00:12:18.421Z,1016.38
2019-05-16T00:13:18.621Z,1016.34
2019-05-16T00:14:18.865Z,1016.29
2019-05-16T00:15:18.310Z,1016.30
2019-05-16T00:16:18.634Z,1016.29
2019-05-16T00:17:18.884Z,1016.24
2019-05-16T00:18:17.977Z,1016.24
2019-05-16T00:19:18.182Z,1016.23
2019-05-16T00:20:19.060Z,1016.25
2019-05-16T00:21:18.131Z,1016.21
2019-05-16T00:22:18.302Z,1016.18
2019-05-16T00:23:18.248Z,1016.17
2019-05-16T00:24:18.646Z,1016.16
2019-05-16T00:25:18.118Z,1016.14
2019-05-16T00:26:19.791Z,1016.12
2019-05-16T00:27:18.621Z,1016.08
2019-05-16T00:28:18.126Z,1016.06
2019-05-16T00:29:18.424Z,1016.07
2019-05-16T00:30:18.352Z,1016.06
2019-05-16T00:31:18.351Z,1016.05
2019-05-16T00:32:19.119Z,1016.01
2019-05-16T00:33:18.383Z,1016.05
2019-05-16T00:34:18.874Z,1015.98
2019-05-16T00:35:18.270Z,1015.93
2019-05-16T00:36:18.925Z,1015.91
2019-05-16T00:37:18.127Z,1015.97
2019-05-16T00:38:18.337Z,1015.91
2019-05-16T00:39:18.773Z,1015.90
2019-05-16T00:40:18.893Z,1015.91
2019-05-16T00:41:18.091Z,1015.81
2019-05-16T00:42:18.055Z,1015.85
2019-05-16T00:43:18.425Z,1015.80
2019-05-16T00:44:18.977Z,1015.78
2019-05-16T00:45:18.585Z,1015.83
2019-05-16T00:46:19.824Z,1015.81
2019-05-16T00:47:17.971Z,1015.78
2019-05-16T00:48:18.207Z,1015.74
2019-05-16T00:49:18.711Z,1015.75
2019-05-16T00:50:18.263Z,1015.70
2019-05-16T00:51:18.284Z,1015.68
2019-05-16T00:52:18.432Z,1015.65
2019-05-16T00:53:18.179Z,1015.65
2019-05-16T00:54:18.570Z,1015.65
2019-05-16T00:55:17.951Z,1015.57
2019-05-16T00:56:18.570Z,1015.55
2019-05-16T00:57:18.829Z,1015.52
2019-05-16T00:58:18.842Z,1015.52
2019-05-16T00:59:18.333Z,1015.51
2019-05-16T01:00:18.133Z,1015.47
2019-05-16T01:01:18.915Z,1015.39
2019-05-16T01:02:18.176Z,1015.37
2019-05-16T01:03:19.858Z,1015.35
2019-05-16T01:04:18.213Z,1015.37
2019-05-16T01:05:19.156Z,1015.40
2019-05-16T01:06:22.550Z,1015.29
2019-05-16T01:07:18.777Z,1015.31
2019-05-16T01:08:18.903Z,1015.30
2019-05-16T01:09:18.787Z,1015.28
2019-05-16T01:10:18.295Z,1015.24
2019-05-16T01:11:18.445Z,1015.23
2019-05-16T01:12:17.844Z,1015.24
2019-05-16T01:13:18.553Z,1015.17
2019-05-16T01:14:17.703Z,1015.19
2019-05-16T01:15:18.445Z,1015.17
2019-05-16T01:16:18.668Z,1015.17
2019-05-16T01:17:18.232Z,1015.14
2019-05-16T01:18:18.705Z,1015.09
2019-05-16T01:19:18.664Z,1015.08
2019-05-16T01:20:19.199Z,1015.05
2019-05-16T01:21:18.548Z,1015.07
2019-05-16T01:22:18.658Z,1015.01
2019-05-16T01:23:18.213Z,1015.05
2019-05-16T01:24:18.801Z,1015.01
2019-05-16T01:25:19.308Z,1014.98
2019-05-16T01:26:18.569Z,1014.96
2019-05-16T01:27:18.504Z,1014.97
2019-05-16T01:28:18.051Z,1014.89
2019-05-16T01:29:18.813Z,1014.88
2019-05-16T01:30:18.677Z,1014.88
2019-05-16T01:31:19.128Z,1014.85
2019-05-16T01:32:18.996Z,1014.89
2019-05-16T01:33:19.075Z,1014.88
2019-05-16T01:34:18.129Z,1014.86
2019-05-16T01:35:18.808Z,1014.81
2019-05-16T01:36:26.282Z,1014.85
2019-05-16T01:37:18.621Z,1014.81
2019-05-16T01:38:18.053Z,1014.82
2019-05-16T01:39:18.277Z,1014.76
2019-05-16T01:40:18.822Z,1014.77
2019-05-16T01:41:18.031Z,1014.76
2019-05-16T01:42:18.450Z,1014.77
2019-05-16T01:43:17.799Z,1014.77
2019-05-16T01:44:18.319Z,1014.74
2019-05-16T01:45:18.826Z,1014.74
2019-05-16T01:46:18.025Z,1014.71
2019-05-16T01:47:18.264Z,1014.68
2019-05-16T01:48:19.052Z,1014.67
2019-05-16T01:49:18.770Z,1014.63
2019-05-16T01:50:18.171Z,1014.63
2019-05-16T01:51:18.380Z,1014.60
2019-05-16T01:52:17.843Z,1014.57
2019-05-16T01:53:17.845Z,1014.56
2019-05-16T01:54:17.978Z,1014.52
2019-05-16T01:55:18.678Z,1014.55
2019-05-16T01:56:17.969Z,1014.52
2019-05-16T01:57:18.143Z,1014.50
2019-05-16T01:58:19.842Z,1014.43
2019-05-16T01:59:18.155Z,1014.38
2019-05-16T02:00:23.589Z,1014.33
2019-05-16T02:01:19.016Z,1014.35
2019-05-16T02:02:18.352Z,1014.34
2019-05-16T02:03:18.832Z,1014.32
2019-05-16T02:04:18.354Z,1014.32
2019-05-16T02:05:18.599Z,1014.30
2019-05-16T02:06:18.350Z,1014.32
2019-05-16T02:07:18.231Z,1014.34
2019-05-16T02:08:18.250Z,1014.33
2019-05-16T02:09:18.862Z,1014.34
2019-05-16T02:10:18.046Z,1014.35
2019-05-16T02:11:18.107Z,1014.33
2019-05-16T02:12:18.464Z,1014.39
2019-05-16T02:13:18.099Z,1014.34
2019-05-16T02:14:17.728Z,1014.36
2019-05-16T02:15:18.255Z,1014.33
2019-05-16T02:16:18.530Z,1014.35
2019-05-16T02:17:18.396Z,1014.31
2019-05-16T02:18:18.435Z,1014.33
2019-05-16T02:19:18.645Z,1014.31
2019-05-16T02:20:17.998Z,1014.29
2019-05-16T02:21:18.206Z,1014.28
2019-05-16T02:22:17.889Z,1014.26
2019-05-16T02:23:18.530Z,1014.28
2019-05-16T02:24:18.269Z,1014.26
2019-05-16T02:25:18.469Z,1014.30
2019-05-16T02:26:18.910Z,1014.25
2019-05-16T02:27:18.229Z,1014.21
2019-05-16T02:28:16.398Z,1014.20
2019-05-16T02:29:16.388Z,1014.19
2019-05-16T02:30:16.410Z,1014.18
2019-05-16T02:31:16.365Z,1014.17
2019-05-16T02:32:16.357Z,1014.20
2019-05-16T02:33:16.342Z,1014.13
2019-05-16T02:34:16.331Z,1014.09
2019-05-16T02:35:16.322Z,1014.12
2019-05-16T02:36:16.342Z,1014.11
2019-05-16T02:37:24.178Z,1014.13
2019-05-16T02:38:17.285Z,1014.10
2019-05-16T02:39:16.285Z,1014.06
2019-05-16T02:40:16.266Z,1014.08
2019-05-16T02:41:16.254Z,1014.05
2019-05-16T02:42:16.278Z,1014.05
2019-05-16T02:43:16.231Z,1014.06
2019-05-16T02:44:16.222Z,1014.02
2019-05-16T02:45:16.210Z,1014.03
2019-05-16T02:46:16.197Z,1014.07
2019-05-16T02:47:16.185Z,1014.03
2019-05-16T02:48:16.182Z,1014.00
2019-05-16T02:49:16.163Z,1013.99
2019-05-16T02:50:16.151Z,1014.01
2019-05-16T02:51:16.140Z,1013.99
2019-05-16T02:52:16.131Z,1013.97
2019-05-16T02:53:16.121Z,1013.95
2019-05-16T02:54:16.114Z,1013.90
2019-05-16T02:55:16.097Z,1013.89
2019-05-16T02:56:16.085Z,1013.88
2019-05-16T02:57:16.071Z,1013.88
2019-05-16T02:58:16.060Z,1013.87
2019-05-16T02:59:16.051Z,1013.89
2019-05-16T03:00:16.074Z,1013.85
2019-05-16T03:01:16.028Z,1013.86
2019-05-16T03:02:16.019Z,1013.80
2019-05-16T03:03:16.006Z,1013.77
2019-05-16T03:04:15.994Z,1013.77
2019-05-16T03:05:15.989Z,1013.78
2019-05-16T03:06:16.018Z,1013.70
2019-05-16T03:07:35.484Z,1013.72
2019-05-16T03:08:16.949Z,1013.72
2019-05-16T03:09:15.937Z,1013.69
2019-05-16T03:10:15.928Z,1013.70
2019-05-16T03:11:15.922Z,1013.67
2019-05-16T03:12:15.935Z,1013.67
2019-05-16T03:13:15.895Z,1013.64
2019-05-16T03:14:15.881Z,1013.67
2019-05-16T03:15:15.872Z,1013.69
2019-05-16T03:16:15.862Z,1013.67
2019-05-16T03:17:15.847Z,1013.64
2019-05-16T03:18:15.872Z,1013.66
2019-05-16T03:19:15.826Z,1013.66
2019-05-16T03:20:15.816Z,1013.64
2019-05-16T03:21:15.806Z,1013.63
2019-05-16T03:22:15.804Z,1013.61
2019-05-16T03:23:15.779Z,1013.59
2019-05-16T03:24:15.778Z,1013.58
2019-05-16T03:25:15.758Z,1013.58
2019-05-16T03:26:15.747Z,1013.59
2019-05-16T03:27:15.756Z,1013.57
2019-05-16T03:28:15.732Z,1013.54
2019-05-16T03:29:15.712Z,1013.58
2019-05-16T03:30:17.075Z,1013.56
2019-05-16T03:31:16.098Z,1013.58
2019-05-16T03:32:15.701Z,1013.60
2019-05-16T03:33:24.294Z,1013.53
2019-05-16T03:34:17.402Z,1013.52
2019-05-16T03:35:16.865Z,1013.49
2019-05-16T03:36:16.204Z,1013.48
2019-05-16T03:37:15.631Z,1013.47
2019-05-16T03:38:15.611Z,1013.47
2019-05-16T03:39:15.601Z,1013.45
2019-05-16T03:40:15.590Z,1013.46
2019-05-16T03:41:15.585Z,1013.45
2019-05-16T03:42:15.594Z,1013.47
2019-05-16T03:43:15.566Z,1013.44
2019-05-16T03:44:15.545Z,1013.47
2019-05-16T03:45:15.537Z,1013.41
2019-05-16T03:46:15.526Z,1013.44
2019-05-16T03:47:15.512Z,1013.41
2019-05-16T03:48:15.520Z,1013.39
2019-05-16T03:49:15.488Z,1013.39
2019-05-16T03:50:15.476Z,1013.35
2019-05-16T03:51:15.480Z,1013.33
2019-05-16T03:52:15.467Z,1013.33
2019-05-16T03:53:15.448Z,1013.34
2019-05-16T03:54:15.466Z,1013.38
2019-05-16T03:55:15.422Z,1013.34
2019-05-16T03:56:15.427Z,1013.28
2019-05-16T03:57:15.403Z,1013.30
2019-05-16T03:58:15.391Z,1013.24
2019-05-16T03:59:15.394Z,1013.27
2019-05-16T04:00:15.395Z,1013.21
2019-05-16T04:01:15.355Z,1013.23
2019-05-16T04:02:15.346Z,1013.16
2019-05-16T04:03:15.331Z,1013.19
2019-05-16T04:04:15.326Z,1013.18
2019-05-16T04:05:15.311Z,1013.13
2019-05-16T04:06:15.325Z,1013.15
2019-05-16T04:07:15.288Z,1013.12
2019-05-16T04:08:20.741Z,1013.09
2019-05-16T04:09:16.273Z,1013.08
2019-05-16T04:10:15.265Z,1013.09
2019-05-16T04:11:18.582Z,1013.12
2019-05-16T04:12:16.235Z,1013.14
2019-05-16T04:13:15.222Z,1013.16
2019-05-16T04:14:15.215Z,1013.13
2019-05-16T04:15:15.202Z,1013.15
2019-05-16T04:16:15.186Z,1013.15
2019-05-16T04:17:15.178Z,1013.15
2019-05-16T04:18:15.188Z,1013.15
2019-05-16T04:19:15.157Z,1013.13
2019-05-16T04:20:15.144Z,1013.11
2019-05-16T04:21:17.609Z,1013.06
2019-05-16T04:22:16.130Z,1013.13
2019-05-16T04:23:15.112Z,1013.13
2019-05-16T04:24:15.127Z,1013.07
2019-05-16T04:25:15.091Z,1013.01
2019-05-16T04:26:15.076Z,1013.03
2019-05-16T04:27:15.062Z,1013.03
2019-05-16T04:28:15.059Z,1013.03
2019-05-16T04:29:15.054Z,1013.04
2019-05-16T04:30:15.057Z,1013.00
2019-05-16T04:31:15.026Z,1013.06
2019-05-16T04:32:15.010Z,1013.06
2019-05-16T04:33:15.005Z,1013.06
2019-05-16T04:34:14.981Z,1013.07
2019-05-16T04:35:14.973Z,1013.05
2019-05-16T04:36:14.986Z,1013.07
2019-05-16T04:37:14.951Z,1013.05
2019-05-16T04:38:30.224Z,1013.05
2019-05-16T04:39:15.934Z,1013.07
2019-05-16T04:40:14.916Z,1013.03
2019-05-16T04:41:14.910Z,1013.11
2019-05-16T04:42:14.934Z,1013.04
2019-05-16T04:43:14.887Z,1013.03
2019-05-16T04:44:14.874Z,1013.01
2019-05-16T04:45:14.857Z,1013.00
2019-05-16T04:46:14.847Z,1012.98
2019-05-16T04:47:14.839Z,1012.98
2019-05-16T04:48:14.837Z,1013.00
2019-05-16T04:49:14.817Z,1012.97
2019-05-16T04:50:14.802Z,1012.97
2019-05-16T04:51:14.789Z,1012.92
2019-05-16T04:52:14.792Z,1012.94
2019-05-16T04:53:14.769Z,1012.94
2019-05-16T04:54:14.788Z,1012.95
2019-05-16T04:55:14.744Z,1012.95
2019-05-16T04:56:14.734Z,1012.93
2019-05-16T04:57:14.723Z,1012.92
2019-05-16T04:58:14.711Z,1012.89
2019-05-16T04:59:16.610Z,1012.91
2019-05-16T05:00:14.722Z,1012.93
2019-05-16T05:01:14.679Z,1012.91
2019-05-16T05:02:14.687Z,1012.92
2019-05-16T05:03:14.655Z,1012.94
2019-05-16T05:04:15.376Z,1012.88
2019-05-16T05:05:14.632Z,1012.92
2019-05-16T05:06:14.654Z,1012.88
2019-05-16T05:07:14.611Z,1012.86
2019-05-16T05:08:14.599Z,1012.91
2019-05-16T05:09:14.596Z,1012.79
2019-05-16T05:10:14.577Z,1012.82
2019-05-16T05:11:14.565Z,1012.85
2019-05-16T05:12:14.566Z,1012.84
2019-05-16T05:13:14.548Z,1012.87
2019-05-16T05:14:14.532Z,1012.88
2019-05-16T05:15:14.520Z,1012.82
2019-05-16T05:16:14.510Z,1012.84
2019-05-16T05:17:14.499Z,1012.88
2019-05-16T05:18:14.523Z,1012.90
2019-05-16T05:19:14.474Z,1012.85
2019-05-16T05:20:14.463Z,1012.91
2019-05-16T05:21:14.454Z,1012.84
2019-05-16T05:22:14.444Z,1012.87
2019-05-16T05:23:14.429Z,1012.77
2019-05-16T05:24:14.461Z,1012.80
2019-05-16T05:25:14.406Z,1012.78
2019-05-16T05:26:14.396Z,1012.80
2019-05-16T05:27:14.383Z,1012.83
2019-05-16T05:28:14.374Z,1012.86
2019-05-16T05:29:14.362Z,1012.82
2019-05-16T05:30:14.383Z,1012.85
2019-05-16T05:31:14.353Z,1012.83
2019-05-16T05:32:14.674Z,1012.78
2019-05-16T05:33:14.318Z,1012.80
2019-05-16T05:34:14.305Z,1012.75
2019-05-16T05:35:14.293Z,1012.81
2019-05-16T05:36:14.290Z,1012.76
2019-05-16T05:37:14.272Z,1012.73
2019-05-16T05:38:14.260Z,1012.74
2019-05-16T05:39:15.599Z,1012.77
2019-05-16T05:40:14.238Z,1012.79
2019-05-16T05:41:14.227Z,1012.72
2019-05-16T05:42:14.252Z,1012.74
2019-05-16T05:43:14.205Z,1012.78
2019-05-16T05:44:14.212Z,1012.77
2019-05-16T05:45:14.181Z,1012.78
2019-05-16T05:46:14.170Z,1012.75
2019-05-16T05:47:14.158Z,1012.75
2019-05-16T05:48:14.157Z,1012.80
2019-05-16T05:49:14.137Z,1012.79
2019-05-16T05:50:14.125Z,1012.80
2019-05-16T05:51:14.114Z,1012.78
2019-05-16T05:52:14.113Z,1012.78
2019-05-16T05:53:14.094Z,1012.81
2019-05-16T05:54:14.109Z,1012.74
2019-05-16T05:55:14.075Z,1012.78
2019-05-16T05:56:14.059Z,1012.77
2019-05-16T05:57:14.047Z,1012.79
2019-05-16T05:58:14.044Z,1012.71
2019-05-16T05:59:14.027Z,1012.69
2019-05-16T06:00:14.026Z,1012.71
2019-05-16T06:01:14.004Z,1012.68
2019-05-16T06:02:13.990Z,1012.69
2019-05-16T06:03:13.980Z,1012.73
2019-05-16T06:04:13.967Z,1012.62
2019-05-16T06:05:13.958Z,1012.63
2019-05-16T06:06:13.979Z,1012.69
2019-05-16T06:07:13.934Z,1012.65
2019-05-16T06:08:13.927Z,1012.61
2019-05-16T06:09:25.235Z,1012.63
2019-05-16T06:10:14.902Z,1012.63
2019-05-16T06:11:13.905Z,1012.65
2019-05-16T06:12:13.910Z,1012.61
2019-05-16T06:13:13.867Z,1012.60
2019-05-16T06:14:13.855Z,1012.58
2019-05-16T06:15:13.845Z,1012.67
2019-05-16T06:16:13.834Z,1012.66
2019-05-16T06:17:13.822Z,1012.67
2019-05-16T06:18:13.839Z,1012.71
2019-05-16T06:19:13.802Z,1012.67
2019-05-16T06:20:14.806Z,1012.70
2019-05-16T06:21:13.781Z,1012.65
2019-05-16T06:22:13.765Z,1012.67
2019-05-16T06:23:13.763Z,1012.63
2019-05-16T06:24:16.199Z,1012.60
2019-05-16T06:25:14.006Z,1012.58
2019-05-16T06:26:13.721Z,1012.56
2019-05-16T06:27:13.709Z,1012.55
2019-05-16T06:28:13.717Z,1012.60
2019-05-16T06:29:13.687Z,1012.56
2019-05-16T06:30:15.619Z,1012.58
2019-05-16T06:31:14.557Z,1012.57
2019-05-16T06:32:13.655Z,1012.55
2019-05-16T06:33:13.646Z,1012.60
2019-05-16T06:34:15.226Z,1012.56
2019-05-16T06:35:13.619Z,1012.55
2019-05-16T06:36:13.646Z,1012.57
2019-05-16T06:37:13.597Z,1012.55
2019-05-16T06:38:13.586Z,1012.55
2019-05-16T06:39:13.576Z,1012.55
2019-05-16T06:40:13.564Z,1012.54
2019-05-16T06:41:13.554Z,1012.56
2019-05-16T06:42:13.549Z,1012.54
2019-05-16T06:43:13.530Z,1012.57
2019-05-16T06:44:13.518Z,1012.55
2019-05-16T06:45:13.508Z,1012.57
2019-05-16T06:46:13.497Z,1012.56
2019-05-16T06:47:19.753Z,1012.54
2019-05-16T06:48:14.510Z,1012.54
2019-05-16T06:49:13.463Z,1012.50
2019-05-16T06:50:13.450Z,1012.48
2019-05-16T06:51:13.441Z,1012.49
2019-05-16T06:52:13.428Z,1012.43
2019-05-16T06:53:13.417Z,1012.45
2019-05-16T06:54:13.413Z,1012.45
2019-05-16T06:55:13.399Z,1012.44
2019-05-16T06:56:13.384Z,1012.44
2019-05-16T06:57:13.373Z,1012.42
2019-05-16T06:58:13.362Z,1012.39
2019-05-16T06:59:13.350Z,1012.40
2019-05-16T07:00:13.347Z,1012.40
2019-05-16T07:01:13.327Z,1012.39
2019-05-16T07:02:26.707Z,1012.39
2019-05-16T07:03:14.303Z,1012.34
2019-05-16T07:04:13.293Z,1012.34
2019-05-16T07:05:13.283Z,1012.35
2019-05-16T07:06:29.736Z,1012.32
2019-05-16T07:07:14.260Z,1012.29
2019-05-16T07:08:13.249Z,1012.32
2019-05-16T07:09:13.237Z,1012.30
2019-05-16T07:10:13.235Z,1012.32
2019-05-16T07:11:13.214Z,1012.32
2019-05-16T07:12:13.212Z,1012.36
2019-05-16T07:13:13.195Z,1012.39
2019-05-16T07:14:13.187Z,1012.37
2019-05-16T07:15:13.171Z,1012.37
2019-05-16T07:16:13.159Z,1012.41
2019-05-16T07:17:13.150Z,1012.37
2019-05-16T07:18:13.295Z,1012.39
2019-05-16T07:19:13.125Z,1012.40
2019-05-16T07:20:13.113Z,1012.35
2019-05-16T07:21:13.103Z,1012.38
2019-05-16T07:22:13.092Z,1012.40
2019-05-16T07:23:13.081Z,1012.33
2019-05-16T07:24:13.099Z,1012.35
2019-05-16T07:25:13.057Z,1012.35
2019-05-16T07:26:13.048Z,1012.30
2019-05-16T07:27:13.034Z,1012.34
2019-05-16T07:28:13.022Z,1012.34
2019-05-16T07:29:13.012Z,1012.34
2019-05-16T07:30:13.042Z,1012.36
2019-05-16T07:31:18.358Z,1012.32
2019-05-16T07:32:13.977Z,1012.36
2019-05-16T07:33:12.968Z,1012.34
2019-05-16T07:34:14.617Z,1012.32
2019-05-16T07:35:12.946Z,1012.33
2019-05-16T07:36:15.849Z,1012.32
2019-05-16T07:37:12.929Z,1012.35
2019-05-16T07:38:12.912Z,1012.36
2019-05-16T07:39:12.900Z,1012.35
2019-05-16T07:40:22.625Z,1012.30
2019-05-16T07:41:14.250Z,1012.34
2019-05-16T07:42:12.869Z,1012.32
2019-05-16T07:43:12.857Z,1012.30
2019-05-16T07:44:12.851Z,1012.28
2019-05-16T07:45:12.833Z,1012.24
2019-05-16T07:46:12.824Z,1012.17
2019-05-16T07:47:12.822Z,1012.13
2019-05-16T07:48:12.799Z,1012.13
2019-05-16T07:49:12.792Z,1012.13
2019-05-16T07:50:12.775Z,1012.09
2019-05-16T07:51:12.768Z,1012.12
2019-05-16T07:52:12.753Z,1012.06
2019-05-16T07:53:12.776Z,1012.07
2019-05-16T07:54:12.732Z,1012.08
2019-05-16T07:55:12.822Z,1012.06
2019-05-16T07:56:12.710Z,1012.05
2019-05-16T07:57:19.605Z,1012.07
2019-05-16T07:58:13.697Z,1012.06
2019-05-16T07:59:12.675Z,1012.08
2019-05-16T08:00:12.664Z,1012.06
2019-05-16T08:01:12.952Z,1012.05
2019-05-16T08:02:12.644Z,1012.07
2019-05-16T08:03:12.631Z,1012.03
2019-05-16T08:04:12.626Z,1012.04
2019-05-16T08:05:12.608Z,1012.02
2019-05-16T08:06:12.596Z,1011.98
2019-05-16T08:07:12.587Z,1012.04
2019-05-16T08:08:12.578Z,1011.98
2019-05-16T08:09:13.075Z,1012.00
2019-05-16T08:10:12.559Z,1012.01
2019-05-16T08:11:12.540Z,1012.03
2019-05-16T08:12:12.528Z,1012.04
2019-05-16T08:13:13.120Z,1012.11
2019-05-16T08:14:12.505Z,1012.11
2019-05-16T08:15:12.496Z,1012.04
2019-05-16T08:16:12.523Z,1012.02
2019-05-16T08:17:12.473Z,1012.02
2019-05-16T08:18:12.461Z,1012.06
2019-05-16T08:19:12.450Z,1012.02
2019-05-16T08:20:12.459Z,1012.02
2019-05-16T08:21:16.587Z,1012.02
2019-05-16T08:22:12.427Z,1012.00
2019-05-16T08:23:12.408Z,1012.04
2019-05-16T08:24:14.932Z,1012.03
2019-05-16T08:25:12.381Z,1012.07
2019-05-16T08:26:12.372Z,1012.09
2019-05-16T08:27:12.439Z,1012.09
2019-05-16T08:28:12.357Z,1012.03
2019-05-16T08:29:13.390Z,1012.01
2019-05-16T08:30:12.325Z,1012.03
2019-05-16T08:31:12.315Z,1012.04
2019-05-16T08:32:12.303Z,1011.97
2019-05-16T08:34:13.313Z,1012.02
2019-05-16T08:35:12.271Z,1011.99
2019-05-16T08:36:12.297Z,1011.97
2019-05-16T08:37:32.942Z,1011.95
2019-05-16T08:38:13.650Z,1011.97
2019-05-16T08:39:12.225Z,1011.96
2019-05-16T08:40:12.252Z,1012.01
2019-05-16T08:41:16.861Z,1011.95
2019-05-16T08:42:13.418Z,1011.94
2019-05-16T08:43:12.180Z,1011.98
2019-05-16T08:44:12.631Z,1011.92
2019-05-16T08:45:12.976Z,1011.90
2019-05-16T08:46:12.750Z,1011.91
2019-05-16T08:47:12.261Z,1011.92
2019-05-16T08:48:12.122Z,1011.95
2019-05-16T08:49:12.667Z,1011.96
2019-05-16T08:50:14.491Z,1011.93
2019-05-16T08:51:12.416Z,1011.93
2019-05-16T08:52:12.115Z,1011.96
2019-05-16T08:53:13.793Z,1011.94
2019-05-16T08:54:13.546Z,1011.96
2019-05-16T08:55:13.318Z,1011.96
2019-05-16T08:56:13.225Z,1011.94
2019-05-16T08:57:26.165Z,1011.94
2019-05-16T08:58:13.722Z,1011.91
2019-05-16T08:59:13.468Z,1011.87
2019-05-16T09:00:14.732Z,1011.79
2019-05-16T09:02:12.980Z,1011.78
2019-05-16T09:03:12.443Z,1011.80
2019-05-16T09:04:12.113Z,1011.79
2019-05-16T09:05:13.602Z,1011.80
2019-05-16T09:06:12.018Z,1011.78
2019-05-16T09:07:12.696Z,1011.77
2019-05-16T09:08:11.898Z,1011.83
2019-05-16T09:09:27.657Z,1011.79
2019-05-16T09:10:10.999Z,1011.98
2019-05-16T09:10:34.492Z,1011.81
2019-05-16T09:10:45.756Z,1011.82
2019-05-16T09:11:29.925Z,1011.79
2019-05-16T09:12:12.851Z,1011.80
2019-05-16T09:13:11.842Z,1011.80
2019-05-16T09:14:11.833Z,1011.75
2019-05-16T09:15:11.819Z,1011.80
2019-05-16T09:16:11.817Z,1011.79
2019-05-16T09:17:11.822Z,1011.76
2019-05-16T09:18:11.786Z,1011.73
2019-05-16T09:19:11.776Z,1011.70
2019-05-16T09:20:11.765Z,1011.73
2019-05-16T09:21:11.752Z,1011.71
2019-05-16T09:22:11.756Z,1011.70
2019-05-16T09:23:11.730Z,1011.70
2019-05-16T09:24:11.719Z,1011.74
2019-05-16T09:25:11.707Z,1011.68
2019-05-16T09:26:15.830Z,1011.68
2019-05-16T09:27:13.332Z,1011.66
2019-05-16T09:28:11.675Z,1011.68
2019-05-16T09:29:11.667Z,1011.70
2019-05-16T09:30:11.650Z,1011.68
2019-05-16T09:31:11.640Z,1011.67
2019-05-16T09:32:20.999Z,1011.63
2019-05-16T09:33:12.644Z,1011.65
2019-05-16T09:34:11.610Z,1011.64
2019-05-16T09:35:11.608Z,1011.61
2019-05-16T09:36:11.626Z,1011.59
2019-05-16T09:37:11.573Z,1011.57
2019-05-16T09:38:11.564Z,1011.59
2019-05-16T09:39:11.556Z,1011.59
2019-05-16T09:40:11.552Z,1011.61
2019-05-16T09:41:11.526Z,1011.58
2019-05-16T09:42:11.517Z,1011.63
2019-05-16T09:43:11.506Z,1011.60
2019-05-16T09:44:11.496Z,1011.64
2019-05-16T09:45:11.501Z,1011.59
2019-05-16T09:46:11.473Z,1011.60
2019-05-16T09:47:11.467Z,1011.56
2019-05-16T09:48:11.449Z,1011.57
2019-05-16T09:49:19.185Z,1011.56
2019-05-16T09:50:12.451Z,1011.52
2019-05-16T09:51:11.415Z,1011.50
2019-05-16T09:52:11.408Z,1011.49
2019-05-16T09:53:11.391Z,1011.41
2019-05-16T09:54:11.381Z,1011.38
2019-05-16T09:55:11.383Z,1011.38
2019-05-16T09:56:11.365Z,1011.37
2019-05-16T09:57:11.347Z,1011.45
2019-05-16T09:58:11.336Z,1011.51
2019-05-16T09:59:11.323Z,1011.55
2019-05-16T10:00:11.313Z,1011.53
2019-05-16T10:01:11.312Z,1011.55
2019-05-16T10:02:11.326Z,1011.54
2019-05-16T10:03:11.289Z,1011.57
2019-05-16T10:04:11.274Z,1011.57
2019-05-16T10:05:13.512Z,1011.53
2019-05-16T10:06:11.245Z,1011.55
2019-05-16T10:07:11.237Z,1011.54
2019-05-16T10:08:11.251Z,1011.49
2019-05-16T10:09:11.212Z,1011.52
2019-05-16T10:10:11.201Z,1011.50
2019-05-16T10:11:11.191Z,1011.52
2019-05-16T10:12:15.339Z,1011.55
2019-05-16T10:13:12.204Z,1011.59
2019-05-16T10:14:11.161Z,1011.53
2019-05-16T10:15:11.145Z,1011.55
2019-05-16T10:16:11.133Z,1011.54
2019-05-16T10:17:11.121Z,1011.54
2019-05-16T10:18:11.112Z,1011.49
2019-05-16T10:19:11.133Z,1011.48
2019-05-16T10:20:11.087Z,1011.54
2019-05-16T10:21:11.079Z,1011.50
2019-05-16T10:22:11.065Z,1011.54
2019-05-16T10:23:14.735Z,1011.45
2019-05-16T10:24:12.055Z,1011.46
2019-05-16T10:25:11.032Z,1011.43
2019-05-16T10:26:11.021Z,1011.40
2019-05-16T10:27:11.009Z,1011.41
2019-05-16T10:28:10.997Z,1011.36
2019-05-16T10:29:11.175Z,1011.40
2019-05-16T10:30:11.009Z,1011.43
2019-05-16T10:31:10.965Z,1011.45
2019-05-16T10:32:10.953Z,1011.44
2019-05-16T10:33:10.943Z,1011.50
2019-05-16T10:34:10.932Z,1011.45
2019-05-16T10:35:10.918Z,1011.40
2019-05-16T10:36:10.932Z,1011.45
2019-05-16T10:37:10.897Z,1011.39
2019-05-16T10:38:10.885Z,1011.37
2019-05-16T10:39:10.874Z,1011.40
2019-05-16T10:40:10.863Z,1011.44
2019-05-16T10:41:10.858Z,1011.40
2019-05-16T10:42:23.524Z,1011.40
2019-05-16T10:43:11.827Z,1011.33
2019-05-16T10:44:10.818Z,1011.29
2019-05-16T10:45:10.807Z,1011.33
2019-05-16T10:46:10.795Z,1011.29
2019-05-16T10:47:10.786Z,1011.33
2019-05-16T10:48:10.783Z,1011.39
2019-05-16T10:49:10.762Z,1011.38
2019-05-16T10:50:10.752Z,1011.39
2019-05-16T10:51:10.742Z,1011.38
2019-05-16T10:52:10.729Z,1011.31
2019-05-16T10:53:32.420Z,1011.28
2019-05-16T10:54:14.235Z,1011.30
2019-05-16T10:55:10.834Z,1011.21
2019-05-16T10:56:10.711Z,1011.31
2019-05-16T10:57:10.770Z,1011.23
2019-05-16T10:58:10.660Z,1011.23
2019-05-16T10:59:46.628Z,1011.29
2019-05-16T11:00:21.449Z,1011.24
2019-05-16T11:01:24.254Z,1011.23
2019-05-16T11:02:11.677Z,1011.26
2019-05-16T11:03:10.604Z,1011.20
2019-05-16T11:04:10.595Z,1011.24
2019-05-16T11:05:25.116Z,1011.22
2019-05-16T11:06:24.794Z,1011.28
2019-05-16T11:07:11.558Z,1011.33
2019-05-16T11:08:10.634Z,1011.37
2019-05-16T11:09:10.538Z,1011.38
2019-05-16T11:10:10.528Z,1011.40
2019-05-16T11:11:10.529Z,1011.37
2019-05-16T11:12:10.511Z,1011.31
2019-05-16T11:13:10.491Z,1011.30
2019-05-16T11:14:10.484Z,1011.34
2019-05-16T11:15:11.439Z,1011.39
2019-05-16T11:16:10.460Z,1011.33
2019-05-16T11:17:13.226Z,1011.26
2019-05-16T11:18:10.448Z,1011.28
2019-05-16T11:19:17.145Z,1011.29
2019-05-16T11:20:11.463Z,1011.23
2019-05-16T11:21:10.402Z,1011.23
2019-05-16T11:22:10.389Z,1011.23
2019-05-16T11:23:10.380Z,1011.24
2019-05-16T11:24:12.297Z,1011.27
2019-05-16T11:25:20.824Z,1011.37
2019-05-16T11:26:11.343Z,1011.33
2019-05-16T11:27:10.341Z,1011.24
2019-05-16T11:28:10.326Z,1011.26
2019-05-16T11:29:10.313Z,1011.24
2019-05-16T11:30:10.372Z,1011.27
2019-05-16T11:31:10.290Z,1011.23
2019-05-16T11:32:10.277Z,1011.27
2019-05-16T11:33:10.278Z,1011.16
2019-05-16T11:34:10.264Z,1011.21
2019-05-16T11:35:10.266Z,1011.22
2019-05-16T11:36:12.773Z,1011.19
2019-05-16T11:37:10.221Z,1011.19
2019-05-16T11:38:10.211Z,1011.19
2019-05-16T11:39:10.200Z,1011.17
2019-05-16T11:40:10.188Z,1011.12
2019-05-16T11:41:10.181Z,1011.09
2019-05-16T11:42:10.178Z,1011.06
2019-05-16T11:43:15.979Z,1011.09
2019-05-16T11:44:11.143Z,1011.07
2019-05-16T11:45:10.684Z,1011.06
2019-05-16T11:46:10.121Z,1011.01
2019-05-16T11:47:10.110Z,1011.00
2019-05-16T11:48:10.106Z,1010.99
2019-05-16T11:49:10.087Z,1011.01
2019-05-16T11:50:10.108Z,1010.99
2019-05-16T11:51:10.072Z,1010.99
2019-05-16T11:52:10.055Z,1010.98
2019-05-16T11:53:10.041Z,1011.01
2019-05-16T11:54:10.038Z,1011.02
2019-05-16T11:55:10.019Z,1011.03
2019-05-16T11:56:10.009Z,1011.04
2019-05-16T11:57:10.022Z,1011.09
2019-05-16T11:58:09.990Z,1011.07
2019-05-16T11:59:09.975Z,1011.08
2019-05-16T12:00:09.986Z,1011.06
2019-05-16T12:01:09.951Z,1011.14
2019-05-16T12:02:09.941Z,1011.14
2019-05-16T12:03:09.932Z,1011.17
2019-05-16T12:04:09.920Z,1011.23
2019-05-16T12:05:09.911Z,1011.23